createdAt,value
2018-07-31T00:03:50.667Z,5.40
2018-07-31T00:07:54.020Z,5.30
2018-07-31T00:11:57.342Z,4.73
2018-07-31T00:16:01.849Z,5.00
2018-07-31T00:20:05.675Z,5.23
2018-07-31T00:24:09.030Z,4.60
2018-07-31T00:28:12.339Z,5.23
2018-07-31T00:32:15.667Z,5.20
2018-07-31T00:36:18.999Z,5.70
2018-07-31T00:40:22.314Z,5.07
2018-07-31T00:44:25.667Z,5.10
2018-07-31T00:48:29.560Z,4.70
2018-07-31T00:52:32.863Z,5.50
2018-07-31T00:56:36.183Z,5.47
2018-07-31T01:00:39.526Z,5.93
2018-07-31T01:04:42.879Z,5.43
2018-07-31T01:08:46.199Z,5.50
2018-07-31T01:12:49.503Z,5.10
2018-07-31T01:16:52.884Z,5.23
2018-07-31T01:20:56.236Z,5.23
2018-07-31T01:24:59.547Z,5.03
2018-07-31T01:29:02.914Z,5.80
2018-07-31T01:33:06.338Z,5.20
2018-07-31T01:37:09.664Z,5.50
2018-07-31T01:41:13.130Z,6.13
2018-07-31T01:45:16.463Z,5.30
2018-07-31T01:49:19.797Z,5.80
2018-07-31T01:53:23.167Z,5.83
2018-07-31T01:57:26.491Z,5.77
2018-07-31T02:01:29.811Z,6.17
2018-07-31T02:05:33.161Z,5.97
2018-07-31T02:09:37.782Z,6.40
2018-07-31T02:13:41.099Z,6.17
2018-07-31T02:17:44.435Z,5.73
2018-07-31T02:21:47.554Z,5.40
2018-07-31T02:25:50.888Z,5.40
2018-07-31T02:29:59.539Z,5.60
2018-07-31T02:34:02.847Z,6.23
2018-07-31T02:38:06.192Z,5.83
2018-07-31T02:42:09.556Z,6.10
2018-07-31T02:46:12.867Z,6.40
2018-07-31T02:50:15.998Z,5.33
2018-07-31T02:54:19.300Z,5.67
2018-07-31T02:58:22.647Z,5.53
2018-07-31T03:02:26.050Z,6.20
2018-07-31T03:06:29.401Z,5.80
2018-07-31T03:10:32.731Z,6.80
2018-07-31T03:14:36.102Z,6.20
2018-07-31T03:18:39.443Z,6.83
2018-07-31T03:22:42.815Z,6.87
2018-07-31T03:26:46.622Z,6.70
2018-07-31T03:30:49.961Z,7.20
2018-07-31T03:34:53.311Z,7.20
2018-07-31T03:38:56.640Z,7.50
2018-07-31T03:42:59.995Z,7.57
2018-07-31T03:47:03.347Z,7.43
2018-07-31T03:51:06.711Z,7.00
2018-07-31T03:55:10.036Z,7.23
2018-07-31T03:59:13.385Z,6.50
2018-07-31T04:03:16.707Z,7.50
2018-07-31T04:07:20.028Z,7.50
2018-07-31T04:11:23.407Z,7.37
2018-07-31T04:15:26.739Z,7.97
2018-07-31T04:19:30.087Z,7.90
2018-07-31T04:23:33.467Z,6.73
2018-07-31T04:27:36.797Z,6.97
2018-07-31T04:31:40.221Z,7.23
2018-07-31T04:35:44.718Z,7.43
2018-07-31T04:39:48.047Z,7.53
2018-07-31T04:43:51.408Z,7.43
2018-07-31T04:47:54.741Z,8.80
2018-07-31T04:51:58.075Z,8.00
2018-07-31T04:56:01.440Z,8.47
2018-07-31T05:00:07.916Z,8.50
2018-07-31T05:04:11.256Z,8.43
2018-07-31T05:08:14.602Z,8.57
2018-07-31T05:12:17.963Z,10.07
2018-07-31T05:16:21.268Z,9.83
2018-07-31T05:20:24.632Z,8.90
2018-07-31T05:24:27.967Z,9.03
2018-07-31T05:28:31.293Z,8.57
2018-07-31T05:32:34.712Z,7.40
2018-07-31T05:36:38.014Z,8.08
2018-07-31T05:40:41.327Z,8.10
2018-07-31T05:44:44.740Z,8.17
2018-07-31T05:48:48.672Z,9.53
2018-07-31T05:52:52.014Z,9.30
2018-07-31T05:56:55.367Z,9.57
2018-07-31T06:00:58.947Z,9.00
2018-07-31T06:05:02.363Z,9.77
2018-07-31T06:09:07.976Z,9.83
2018-07-31T06:13:11.407Z,10.47
2018-07-31T06:17:14.752Z,10.97
2018-07-31T06:21:18.099Z,9.97
2018-07-31T06:25:21.496Z,9.57
2018-07-31T06:29:24.847Z,9.27
2018-07-31T06:33:28.184Z,9.47
2018-07-31T06:37:31.587Z,8.13
2018-07-31T06:41:34.936Z,8.30
2018-07-31T06:45:38.288Z,7.83
2018-07-31T06:49:41.429Z,7.73
2018-07-31T06:53:44.868Z,7.43
2018-07-31T06:57:54.711Z,7.77
2018-07-31T07:01:58.106Z,7.80
2018-07-31T07:06:01.471Z,7.03
2018-07-31T07:10:05.287Z,6.80
2018-07-31T07:14:08.703Z,6.83
2018-07-31T07:18:12.046Z,7.13
2018-07-31T07:22:15.387Z,6.63
2018-07-31T07:26:18.714Z,7.17
2018-07-31T07:30:22.047Z,6.70
2018-07-31T07:34:25.447Z,8.63
2018-07-31T07:38:28.787Z,8.47
2018-07-31T07:42:32.155Z,7.80
2018-07-31T07:46:35.508Z,8.23
2018-07-31T07:50:39.051Z,8.20
2018-07-31T07:54:42.959Z,7.43
2018-07-31T07:58:46.309Z,8.10
2018-07-31T08:02:49.620Z,8.03
2018-07-31T08:06:52.959Z,8.87
2018-07-31T08:10:56.294Z,7.60
2018-07-31T08:14:59.793Z,7.97
2018-07-31T08:19:03.186Z,7.47
2018-07-31T08:23:06.538Z,7.80
2018-07-31T08:27:09.911Z,7.40
2018-07-31T08:31:13.423Z,7.37
2018-07-31T08:35:17.342Z,7.77
2018-07-31T08:39:21.031Z,8.13
2018-07-31T08:43:24.991Z,8.60
2018-07-31T08:47:28.778Z,8.70
2018-07-31T08:51:32.116Z,9.78
2018-07-31T08:55:35.484Z,8.90
2018-07-31T08:59:38.833Z,9.03
2018-07-31T09:03:42.187Z,9.30
2018-07-31T09:07:45.506Z,9.13
2018-07-31T09:11:48.835Z,8.10
2018-07-31T09:15:52.176Z,8.58
2018-07-31T09:19:55.510Z,10.73
2018-07-31T09:23:58.874Z,8.90
2018-07-31T09:28:02.179Z,8.30
2018-07-31T09:32:05.501Z,8.18
2018-07-31T09:36:08.826Z,6.78
2018-07-31T09:40:12.197Z,6.50
2018-07-31T09:44:15.537Z,6.00
2018-07-31T09:48:18.881Z,5.50
2018-07-31T09:52:22.200Z,5.42
2018-07-31T09:56:25.555Z,5.47
2018-07-31T10:00:34.363Z,5.87
2018-07-31T10:04:38.012Z,5.22
2018-07-31T10:08:41.317Z,5.12
2018-07-31T10:12:44.651Z,4.80
2018-07-31T10:16:47.979Z,5.00
2018-07-31T10:20:51.337Z,4.30
2018-07-31T10:24:54.667Z,5.00
2018-07-31T10:28:57.980Z,3.95
2018-07-31T10:33:01.373Z,4.03
2018-07-31T10:37:04.732Z,4.60
2018-07-31T10:41:08.084Z,4.53
2018-07-31T10:45:11.435Z,4.72
2018-07-31T10:49:14.808Z,4.80
2018-07-31T10:53:18.199Z,3.80
2018-07-31T10:57:21.526Z,4.17
2018-07-31T11:01:24.918Z,4.20
2018-07-31T11:05:27.949Z,4.15
2018-07-31T11:09:31.253Z,4.50
2018-07-31T11:13:34.583Z,4.03
2018-07-31T11:17:37.927Z,3.85
2018-07-31T11:21:41.360Z,4.35
2018-07-31T11:25:44.686Z,3.40
2018-07-31T11:29:48.007Z,3.47
2018-07-31T11:33:51.346Z,3.83
2018-07-31T11:37:54.671Z,3.30
2018-07-31T11:41:58.030Z,3.42
2018-07-31T11:46:01.369Z,3.90
2018-07-31T11:50:05.386Z,3.65
2018-07-31T11:54:08.606Z,3.17
2018-07-31T11:58:12.139Z,2.98
2018-07-31T12:02:15.503Z,3.00
2018-07-31T12:06:18.866Z,2.72
2018-07-31T12:10:22.202Z,3.35
2018-07-31T12:14:25.519Z,3.65
2018-07-31T12:18:28.854Z,3.40
2018-07-31T12:22:32.236Z,3.40
2018-07-31T12:26:35.603Z,3.22
2018-07-31T12:30:38.926Z,3.52
2018-07-31T12:34:42.278Z,3.72
2018-07-31T12:38:45.611Z,3.52
2018-07-31T12:42:48.936Z,3.42
2018-07-31T12:46:52.267Z,3.22
2018-07-31T12:50:55.581Z,3.12
2018-07-31T12:54:58.915Z,2.98
2018-07-31T12:59:02.280Z,2.85
2018-07-31T13:03:05.847Z,2.80
2018-07-31T13:07:09.286Z,2.72
2018-07-31T13:11:14.071Z,3.08
2018-07-31T13:15:17.410Z,2.58
2018-07-31T13:19:20.732Z,2.50
2018-07-31T13:23:24.083Z,3.02
2018-07-31T13:27:27.411Z,2.58
2018-07-31T13:31:30.835Z,2.58
2018-07-31T13:35:34.174Z,2.80
2018-07-31T13:39:37.554Z,2.70
2018-07-31T13:43:40.935Z,2.77
2018-07-31T13:47:44.244Z,3.02
2018-07-31T13:51:47.592Z,3.00
2018-07-31T13:55:50.919Z,2.83
2018-07-31T13:59:54.268Z,2.60
2018-07-31T14:03:57.633Z,2.40
2018-07-31T14:08:00.959Z,2.58
2018-07-31T14:12:04.331Z,2.60
2018-07-31T14:16:07.653Z,2.58
2018-07-31T14:20:11.017Z,2.37
2018-07-31T14:24:14.356Z,2.10
2018-07-31T14:28:17.945Z,2.40
2018-07-31T14:32:21.299Z,2.10
2018-07-31T14:36:24.623Z,2.75
2018-07-31T14:40:27.983Z,2.50
2018-07-31T14:44:31.321Z,2.55
2018-07-31T14:48:34.756Z,2.15
2018-07-31T14:52:38.043Z,2.10
2018-07-31T14:56:42.707Z,2.40
2018-07-31T15:00:47.772Z,2.17
2018-07-31T15:04:52.811Z,2.05
2018-07-31T15:08:56.155Z,2.70
2018-07-31T15:12:59.492Z,2.60
2018-07-31T15:17:02.851Z,2.40
2018-07-31T15:21:06.282Z,2.20
2018-07-31T15:25:09.661Z,2.60
2018-07-31T15:29:12.999Z,2.70
2018-07-31T15:33:16.324Z,2.42
2018-07-31T15:37:19.636Z,2.35
2018-07-31T15:41:23.082Z,2.37
2018-07-31T15:45:26.408Z,2.35
2018-07-31T15:49:29.751Z,2.50
2018-07-31T15:53:33.227Z,3.00
2018-07-31T15:57:36.544Z,2.80
2018-07-31T16:01:39.615Z,2.90
2018-07-31T16:05:43.008Z,3.87
2018-07-31T16:09:46.324Z,2.72
2018-07-31T16:13:49.675Z,2.67
2018-07-31T16:17:53.014Z,2.27
2018-07-31T16:21:56.365Z,2.50
2018-07-31T16:25:59.769Z,2.42
2018-07-31T16:30:03.104Z,2.47
2018-07-31T16:34:06.575Z,2.50
2018-07-31T16:38:09.871Z,2.90
2018-07-31T16:42:13.222Z,2.80
2018-07-31T16:46:16.754Z,3.08
2018-07-31T16:50:21.079Z,2.90
2018-07-31T16:54:24.201Z,2.60
2018-07-31T16:58:27.531Z,2.58
2018-07-31T17:02:30.856Z,2.80
2018-07-31T17:06:34.195Z,2.90
2018-07-31T17:10:37.542Z,2.80
2018-07-31T17:14:40.870Z,2.67
2018-07-31T17:18:44.190Z,2.87
2018-07-31T17:22:47.531Z,3.02
2018-07-31T17:26:51.316Z,2.92
2018-07-31T17:30:54.743Z,3.22
2018-07-31T17:34:58.096Z,2.72
2018-07-31T17:39:01.424Z,2.52
2018-07-31T17:43:04.782Z,3.00
2018-07-31T17:47:08.102Z,3.12
2018-07-31T17:51:11.539Z,2.60
2018-07-31T17:55:14.871Z,3.00
2018-07-31T17:59:18.243Z,2.67
2018-07-31T18:03:21.587Z,2.70
2018-07-31T18:07:24.973Z,3.33
2018-07-31T18:11:28.371Z,2.65
2018-07-31T18:15:31.838Z,3.10
2018-07-31T18:19:35.175Z,2.75
2018-07-31T18:23:38.639Z,3.15
2018-07-31T18:27:41.875Z,2.70
2018-07-31T18:31:45.219Z,3.67
2018-07-31T18:35:48.541Z,3.10
2018-07-31T18:39:51.888Z,3.25
2018-07-31T18:43:55.242Z,3.35
2018-07-31T18:47:58.594Z,3.55
2018-07-31T18:52:01.924Z,3.37
2018-07-31T18:56:05.358Z,3.15
2018-07-31T19:00:08.766Z,3.50
2018-07-31T19:04:12.083Z,3.37
2018-07-31T19:08:15.587Z,3.25
2018-07-31T19:12:19.188Z,3.87
2018-07-31T19:16:22.758Z,3.20
2018-07-31T19:20:26.445Z,3.52
2018-07-31T19:24:31.472Z,2.95
2018-07-31T19:28:34.889Z,3.47
2018-07-31T19:32:38.215Z,3.40
2018-07-31T19:36:41.573Z,3.25
2018-07-31T19:40:44.890Z,3.30
2018-07-31T19:44:48.270Z,3.08
2018-07-31T19:48:51.611Z,3.02
2018-07-31T19:52:54.946Z,3.05
2018-07-31T19:56:58.285Z,3.08
2018-07-31T20:01:01.647Z,3.27
2018-07-31T20:05:05.196Z,2.80
2018-07-31T20:09:09.419Z,3.12
2018-07-31T20:13:12.756Z,3.40
2018-07-31T20:17:16.107Z,3.07
2018-07-31T20:21:19.633Z,2.92
2018-07-31T20:25:22.920Z,2.90
2018-07-31T20:29:26.256Z,3.37
2018-07-31T20:33:30.082Z,3.17
2018-07-31T20:37:33.804Z,3.08
2018-07-31T20:41:37.428Z,3.22
2018-07-31T20:45:40.745Z,2.80
2018-07-31T20:49:44.097Z,2.77
2018-07-31T20:53:47.424Z,2.55
2018-07-31T20:57:50.762Z,2.27
2018-07-31T21:01:54.273Z,2.62
2018-07-31T21:05:57.600Z,2.70
2018-07-31T21:10:01.000Z,2.47
2018-07-31T21:14:04.368Z,2.30
2018-07-31T21:18:07.712Z,1.82
2018-07-31T21:22:11.183Z,1.77
2018-07-31T21:26:14.511Z,2.20
2018-07-31T21:30:17.862Z,2.17
2018-07-31T21:34:21.231Z,2.35
2018-07-31T21:38:24.688Z,2.30
2018-07-31T21:42:28.051Z,2.10
2018-07-31T21:46:31.362Z,2.13
2018-07-31T21:50:34.719Z,2.05
2018-07-31T21:54:38.417Z,1.95
2018-07-31T21:58:41.763Z,2.03
2018-07-31T22:02:45.816Z,2.20
2018-07-31T22:06:55.947Z,2.20
2018-07-31T22:10:59.276Z,2.17
2018-07-31T22:15:02.928Z,2.30
2018-07-31T22:19:08.048Z,2.73
2018-07-31T22:23:11.795Z,2.30
2018-07-31T22:27:15.505Z,2.93
2018-07-31T22:31:19.154Z,2.57
2018-07-31T22:35:22.497Z,2.60
2018-07-31T22:39:25.832Z,3.10
2018-07-31T22:43:29.228Z,2.73
2018-07-31T22:47:32.521Z,3.30
2018-07-31T22:51:35.828Z,2.93
2018-07-31T22:55:39.582Z,2.73
2018-07-31T22:59:42.909Z,2.80
2018-07-31T23:03:46.310Z,2.93
2018-07-31T23:07:50.983Z,3.43
2018-07-31T23:11:54.303Z,3.93
2018-07-31T23:15:58.921Z,5.20
2018-07-31T23:20:04.403Z,4.20
2018-07-31T23:24:07.483Z,3.90
2018-07-31T23:28:10.803Z,3.90
2018-07-31T23:32:14.159Z,4.17
2018-07-31T23:36:17.490Z,3.90
2018-07-31T23:40:20.815Z,4.00
2018-07-31T23:44:24.163Z,4.03
2018-07-31T23:48:27.475Z,4.10
2018-07-31T23:52:30.904Z,4.00
2018-07-31T23:56:34.219Z,3.77
